sensor_id;sensor_type;location;lat;lon;timestamp;pressure;altitude;pressure_sealevel;temperature;humidity
62524;BME280;53689;56.878;60.672;2024-03-23T00:53:29;97541.31;;;22.29;26.72
62524;BME280;53689;56.878;60.672;2024-03-23T00:55:55;97538.81;;;22.28;25.59
62524;BME280;53689;56.878;60.672;2024-03-23T00:58:22;97549.09;;;22.38;25.56
62524;BME280;53689;56.878;60.672;2024-03-23T01:00:49;97539.69;;;22.47;26.41
62524;BME280;53689;56.878;60.672;2024-03-23T01:03:15;97541.78;;;22.45;26.81
62524;BME280;53689;56.878;60.672;2024-03-23T01:05:42;97540.69;;;22.27;28.04
62524;BME280;53689;56.878;60.672;2024-03-23T01:08:08;97534.09;;;22.23;26.19
62524;BME280;53689;56.878;60.672;2024-03-23T01:10:36;97529.28;;;22.25;26.11
62524;BME280;53689;56.878;60.672;2024-03-23T01:13:03;97529.88;;;22.27;27.50
62524;BME280;53689;56.878;60.672;2024-03-23T01:15:30;97526.06;;;22.42;27.27
62524;BME280;53689;56.878;60.672;2024-03-23T01:17:57;97527.38;;;22.33;27.64
62524;BME280;53689;56.878;60.672;2024-03-23T01:20:23;97517.47;;;22.26;27.04
62524;BME280;53689;56.878;60.672;2024-03-23T01:22:50;97521.81;;;22.27;25.70
62524;BME280;53689;56.878;60.672;2024-03-23T01:25:16;97516.59;;;22.33;25.29
62524;BME280;53689;56.878;60.672;2024-03-23T01:27:44;97522.06;;;22.19;27.80
62524;BME280;53689;56.878;60.672;2024-03-23T01:30:11;97521.19;;;22.25;25.61
62524;BME280;53689;56.878;60.672;2024-03-23T01:32:38;97514.28;;;22.11;26.37
62524;BME280;53689;56.878;60.672;2024-03-23T01:35:05;97524.22;;;21.85;25.09
62524;BME280;53689;56.878;60.672;2024-03-23T01:37:31;97519.59;;;21.92;25.09
62524;BME280;53689;56.878;60.672;2024-03-23T01:39:58;97514.63;;;21.89;24.60
62524;BME280;53689;56.878;60.672;2024-03-23T01:42:25;97522.63;;;22.02;25.83
62524;BME280;53689;56.878;60.672;2024-03-23T01:44:53;97517.25;;;22.02;25.80
62524;BME280;53689;56.878;60.672;2024-03-23T01:47:19;97514.09;;;22.06;26.74
62524;BME280;53689;56.878;60.672;2024-03-23T01:49:46;97514.66;;;22.14;26.58
62524;BME280;53689;56.878;60.672;2024-03-23T01:52:13;97509.91;;;22.10;26.46
62524;BME280;53689;56.878;60.672;2024-03-23T01:54:40;97513.38;;;22.17;26.58
62524;BME280;53689;56.878;60.672;2024-03-23T01:57:07;97512.34;;;22.18;25.44
62524;BME280;53689;56.878;60.672;2024-03-23T01:59:34;97506.66;;;22.26;26.30
62524;BME280;53689;56.878;60.672;2024-03-23T02:02:02;97501.47;;;22.31;26.08
62524;BME280;53689;56.878;60.672;2024-03-23T02:04:29;97498.44;;;22.21;26.07
62524;BME280;53689;56.878;60.672;2024-03-23T02:06:57;97511.28;;;22.19;25.60
62524;BME280;53689;56.878;60.672;2024-03-23T02:09:23;97497.94;;;22.06;26.76
62524;BME280;53689;56.878;60.672;2024-03-23T02:11:50;97490.22;;;22.09;25.43
62524;BME280;53689;56.878;60.672;2024-03-23T02:14:17;97487.66;;;22.21;26.24
62524;BME280;53689;56.878;60.672;2024-03-23T02:16:43;97493.78;;;22.28;25.54
62524;BME280;53689;56.878;60.672;2024-03-23T02:19:11;97493.72;;;22.10;26.98
62524;BME280;53689;56.878;60.672;2024-03-23T02:21:38;97492.94;;;22.09;26.02
62524;BME280;53689;56.878;60.672;2024-03-23T02:24:07;97492.75;;;22.04;24.40
62524;BME280;53689;56.878;60.672;2024-03-23T02:26:33;97491.03;;;22.10;24.69
62524;BME280;53689;56.878;60.672;2024-03-23T02:29:00;97487.94;;;22.13;26.92
62524;BME280;53689;56.878;60.672;2024-03-23T02:31:27;97491.75;;;21.98;26.60
62524;BME280;53689;56.878;60.672;2024-03-23T02:33:53;97489.31;;;21.97;25.93
62524;BME280;53689;56.878;60.672;2024-03-23T02:36:21;97486.78;;;21.70;24.02
62524;BME280;53689;56.878;60.672;2024-03-23T02:38:47;97489.72;;;21.61;25.02
62524;BME280;53689;56.878;60.672;2024-03-23T02:41:15;97484.56;;;21.53;24.90
62524;BME280;53689;56.878;60.672;2024-03-23T02:43:42;97482.00;;;21.72;23.48
62524;BME280;53689;56.878;60.672;2024-03-23T02:46:09;97484.13;;;21.63;24.63
62524;BME280;53689;56.878;60.672;2024-03-23T02:48:36;97484.72;;;21.65;25.35
62524;BME280;53689;56.878;60.672;2024-03-23T02:51:03;97481.44;;;21.56;25.42
62524;BME280;53689;56.878;60.672;2024-03-23T02:53:29;97482.34;;;21.43;23.83
62524;BME280;53689;56.878;60.672;2024-03-23T02:55:57;97483.19;;;21.44;24.46
62524;BME280;53689;56.878;60.672;2024-03-23T02:58:25;97484.03;;;21.38;24.69
62524;BME280;53689;56.878;60.672;2024-03-23T03:00:52;97482.09;;;21.52;23.89
62524;BME280;53689;56.878;60.672;2024-03-23T03:03:19;97475.44;;;21.54;25.28
62524;BME280;53689;56.878;60.672;2024-03-23T03:05:45;97465.97;;;21.45;26.10
62524;BME280;53689;56.878;60.672;2024-03-23T03:08:12;97479.28;;;21.40;24.14
62524;BME280;53689;56.878;60.672;2024-03-23T03:10:39;97473.69;;;21.34;24.17
62524;BME280;53689;56.878;60.672;2024-03-23T03:13:05;97469.31;;;21.40;24.63
62524;BME280;53689;56.878;60.672;2024-03-23T03:15:33;97467.13;;;21.62;25.88
62524;BME280;53689;56.878;60.672;2024-03-23T03:18:00;97478.06;;;21.74;26.23
62524;BME280;53689;56.878;60.672;2024-03-23T03:20:27;97471.03;;;21.73;24.36
62524;BME280;53689;56.878;60.672;2024-03-23T03:22:53;97459.50;;;21.53;24.76
62524;BME280;53689;56.878;60.672;2024-03-23T03:25:21;97466.06;;;21.63;25.05
62524;BME280;53689;56.878;60.672;2024-03-23T03:27:47;97465.78;;;21.79;25.65
62524;BME280;53689;56.878;60.672;2024-03-23T03:30:14;97466.22;;;21.75;25.99
62524;BME280;53689;56.878;60.672;2024-03-23T03:32:42;97460.25;;;21.73;25.89
62524;BME280;53689;56.878;60.672;2024-03-23T03:35:09;97464.75;;;21.80;25.71
62524;BME280;53689;56.878;60.672;2024-03-23T03:37:35;97469.78;;;21.69;25.36
62524;BME280;53689;56.878;60.672;2024-03-23T03:40:02;97469.72;;;21.83;25.32
62524;BME280;53689;56.878;60.672;2024-03-23T03:42:28;97467.16;;;21.88;25.25
62524;BME280;53689;56.878;60.672;2024-03-23T03:44:55;97473.94;;;21.97;25.41
62524;BME280;53689;56.878;60.672;2024-03-23T03:47:22;97468.66;;;21.84;26.49
62524;BME280;53689;56.878;60.672;2024-03-23T03:49:50;97482.22;;;22.02;25.92
62524;BME280;53689;56.878;60.672;2024-03-23T03:52:17;97471.44;;;22.02;26.04
62524;BME280;53689;56.878;60.672;2024-03-23T03:54:44;97477.88;;;22.01;25.72
62524;BME280;53689;56.878;60.672;2024-03-23T03:57:10;97470.13;;;21.80;26.28
62524;BME280;53689;56.878;60.672;2024-03-23T03:59:37;97480.00;;;21.93;25.15
62524;BME280;53689;56.878;60.672;2024-03-23T04:02:04;97472.47;;;22.01;25.49
62524;BME280;53689;56.878;60.672;2024-03-23T04:04:30;97465.59;;;22.06;25.35
62524;BME280;53689;56.878;60.672;2024-03-23T04:07:02;97465.47;;;21.94;25.70
62524;BME280;53689;56.878;60.672;2024-03-23T04:09:29;97466.84;;;22.03;26.17
62524;BME280;53689;56.878;60.672;2024-03-23T04:11:55;97450.72;;;21.96;25.60
62524;BME280;53689;56.878;60.672;2024-03-23T04:14:22;97455.63;;;22.06;27.43
62524;BME280;53689;56.878;60.672;2024-03-23T04:16:49;97455.78;;;22.11;25.98
62524;BME280;53689;56.878;60.672;2024-03-23T04:19:15;97451.34;;;21.98;25.16
62524;BME280;53689;56.878;60.672;2024-03-23T04:21:42;97456.34;;;21.95;27.19
62524;BME280;53689;56.878;60.672;2024-03-23T04:24:10;97469.22;;;21.93;25.83
62524;BME280;53689;56.878;60.672;2024-03-23T04:26:43;97460.41;;;21.79;27.35
62524;BME280;53689;56.878;60.672;2024-03-23T04:29:10;97463.22;;;21.90;25.57
62524;BME280;53689;56.878;60.672;2024-03-23T04:31:36;97464.22;;;21.96;25.21
62524;BME280;53689;56.878;60.672;2024-03-23T04:34:04;97459.66;;;21.97;26.77
62524;BME280;53689;56.878;60.672;2024-03-23T04:36:30;97470.84;;;21.94;25.37
62524;BME280;53689;56.878;60.672;2024-03-23T04:38:59;97471.81;;;22.06;26.77
62524;BME280;53689;56.878;60.672;2024-03-23T04:41:27;97462.72;;;22.00;25.71
62524;BME280;53689;56.878;60.672;2024-03-23T04:43:54;97466.25;;;22.01;25.75
62524;BME280;53689;56.878;60.672;2024-03-23T04:46:21;97465.06;;;21.90;26.44
62524;BME280;53689;56.878;60.672;2024-03-23T04:48:48;97462.16;;;21.92;26.34
62524;BME280;53689;56.878;60.672;2024-03-23T04:51:20;97467.16;;;21.88;27.28
62524;BME280;53689;56.878;60.672;2024-03-23T04:53:47;97457.78;;;21.97;27.61
62524;BME280;53689;56.878;60.672;2024-03-23T04:56:13;97460.41;;;21.79;26.61
62524;BME280;53689;56.878;60.672;2024-03-23T04:58:42;97458.50;;;21.86;25.51
62524;BME280;53689;56.878;60.672;2024-03-23T05:01:08;97456.72;;;21.98;26.86
62524;BME280;53689;56.878;60.672;2024-03-23T05:03:37;97445.06;;;22.04;26.63
62524;BME280;53689;56.878;60.672;2024-03-23T05:06:04;97449.69;;;21.97;25.41
62524;BME280;53689;56.878;60.672;2024-03-23T05:08:31;97451.91;;;21.82;25.44
62524;BME280;53689;56.878;60.672;2024-03-23T05:10:57;97444.09;;;21.73;26.32
62524;BME280;53689;56.878;60.672;2024-03-23T05:13:24;97449.03;;;21.76;26.67
62524;BME280;53689;56.878;60.672;2024-03-23T05:15:53;97443.50;;;21.90;25.64
62524;BME280;53689;56.878;60.672;2024-03-23T05:18:20;97446.50;;;21.82;26.97
62524;BME280;53689;56.878;60.672;2024-03-23T05:20:46;97442.59;;;21.78;26.73
62524;BME280;53689;56.878;60.672;2024-03-23T05:23:13;97450.66;;;21.78;25.44
62524;BME280;53689;56.878;60.672;2024-03-23T05:25:39;97444.03;;;21.80;25.66
62524;BME280;53689;56.878;60.672;2024-03-23T05:28:06;97438.13;;;21.90;25.06
62524;BME280;53689;56.878;60.672;2024-03-23T05:30:33;97439.88;;;22.03;25.85
62524;BME280;53689;56.878;60.672;2024-03-23T05:33:01;97440.75;;;21.71;27.78
62524;BME280;53689;56.878;60.672;2024-03-23T05:35:27;97432.38;;;21.86;25.59
62524;BME280;53689;56.878;60.672;2024-03-23T05:37:54;97435.44;;;21.90;26.28
62524;BME280;53689;56.878;60.672;2024-03-23T05:40:20;97431.94;;;21.89;25.29
62524;BME280;53689;56.878;60.672;2024-03-23T05:42:47;97432.38;;;21.86;25.63
62524;BME280;53689;56.878;60.672;2024-03-23T05:45:14;97440.59;;;22.17;27.44
62524;BME280;53689;56.878;60.672;2024-03-23T05:47:41;97437.84;;;21.98;26.82
62524;BME280;53689;56.878;60.672;2024-03-23T05:50:09;97444.34;;;21.90;27.34
62524;BME280;53689;56.878;60.672;2024-03-23T05:52:36;97438.44;;;22.00;25.25
62524;BME280;53689;56.878;60.672;2024-03-23T05:55:03;97441.00;;;21.70;26.46
62524;BME280;53689;56.878;60.672;2024-03-23T05:57:30;97437.53;;;21.88;25.86
62524;BME280;53689;56.878;60.672;2024-03-23T05:59:56;97444.75;;;21.94;26.26
62524;BME280;53689;56.878;60.672;2024-03-23T06:02:23;97438.91;;;21.97;26.02
62524;BME280;53689;56.878;60.672;2024-03-23T06:04:50;97450.66;;;22.03;26.56
62524;BME280;53689;56.878;60.672;2024-03-23T06:07:18;97445.63;;;21.88;26.49
62524;BME280;53689;56.878;60.672;2024-03-23T06:09:44;97443.16;;;21.86;25.23
62524;BME280;53689;56.878;60.672;2024-03-23T06:12:11;97435.72;;;21.82;27.10
62524;BME280;53689;56.878;60.672;2024-03-23T06:14:38;97431.47;;;21.93;26.29
62524;BME280;53689;56.878;60.672;2024-03-23T06:17:05;97434.91;;;21.81;27.32
62524;BME280;53689;56.878;60.672;2024-03-23T06:19:32;97447.72;;;21.86;27.53
62524;BME280;53689;56.878;60.672;2024-03-23T06:21:58;97437.13;;;21.84;25.66
62524;BME280;53689;56.878;60.672;2024-03-23T06:24:26;97434.94;;;21.74;26.27
62524;BME280;53689;56.878;60.672;2024-03-23T06:26:53;97433.06;;;22.00;25.93
62524;BME280;53689;56.878;60.672;2024-03-23T06:29:20;97424.16;;;22.00;27.37
62524;BME280;53689;56.878;60.672;2024-03-23T06:31:53;97423.72;;;21.78;27.56
62524;BME280;53689;56.878;60.672;2024-03-23T06:34:19;97425.97;;;21.81;28.40
62524;BME280;53689;56.878;60.672;2024-03-23T06:36:47;97412.56;;;21.99;27.32
62524;BME280;53689;56.878;60.672;2024-03-23T06:39:13;97405.38;;;21.93;25.89
62524;BME280;53689;56.878;60.672;2024-03-23T06:41:42;97412.41;;;21.94;26.51
62524;BME280;53689;56.878;60.672;2024-03-23T06:44:09;97409.25;;;21.97;26.18
62524;BME280;53689;56.878;60.672;2024-03-23T06:46:36;97415.38;;;21.86;25.14
62524;BME280;53689;56.878;60.672;2024-03-23T06:49:02;97411.94;;;21.97;26.34
62524;BME280;53689;56.878;60.672;2024-03-23T06:51:29;97418.13;;;22.04;25.28
62524;BME280;53689;56.878;60.672;2024-03-23T06:53:56;97414.59;;;21.79;27.94
62524;BME280;53689;56.878;60.672;2024-03-23T06:56:23;97415.56;;;21.91;25.58
62524;BME280;53689;56.878;60.672;2024-03-23T06:58:51;97427.78;;;21.87;26.94
62524;BME280;53689;56.878;60.672;2024-03-23T07:01:18;97419.94;;;22.11;27.17
62524;BME280;53689;56.878;60.672;2024-03-23T07:03:44;97419.81;;;21.99;26.80
62524;BME280;53689;56.878;60.672;2024-03-23T07:06:11;97421.31;;;21.95;26.94
62524;BME280;53689;56.878;60.672;2024-03-23T07:08:38;97420.59;;;21.81;26.62
62524;BME280;53689;56.878;60.672;2024-03-23T07:11:04;97419.13;;;21.85;25.78
62524;BME280;53689;56.878;60.672;2024-03-23T07:13:31;97413.19;;;22.01;26.99
62524;BME280;53689;56.878;60.672;2024-03-23T07:15:59;97414.50;;;21.92;26.55
62524;BME280;53689;56.878;60.672;2024-03-23T07:18:25;97398.75;;;21.89;26.30
62524;BME280;53689;56.878;60.672;2024-03-23T07:20:53;97408.00;;;22.00;26.19
62524;BME280;53689;56.878;60.672;2024-03-23T07:23:20;97396.50;;;21.86;28.44
62524;BME280;53689;56.878;60.672;2024-03-23T07:25:56;97403.53;;;22.12;27.17
62524;BME280;53689;56.878;60.672;2024-03-23T07:28:23;97400.41;;;21.90;26.81
62524;BME280;53689;56.878;60.672;2024-03-23T07:31:02;97402.88;;;21.92;25.84
62524;BME280;53689;56.878;60.672;2024-03-23T07:33:30;97391.25;;;21.72;27.15
62524;BME280;53689;56.878;60.672;2024-03-23T07:35:57;97396.56;;;21.79;25.02
62524;BME280;53689;56.878;60.672;2024-03-23T07:38:24;97398.03;;;22.00;25.72
62524;BME280;53689;56.878;60.672;2024-03-23T07:40:51;97397.56;;;21.85;26.15
62524;BME280;53689;56.878;60.672;2024-03-23T07:43:17;97394.41;;;21.88;25.58
62524;BME280;53689;56.878;60.672;2024-03-23T07:45:51;97395.31;;;22.26;27.96
62524;BME280;53689;56.878;60.672;2024-03-23T07:48:21;97393.47;;;22.01;26.18
62524;BME280;53689;56.878;60.672;2024-03-23T07:50:57;97394.59;;;21.93;24.72
62524;BME280;53689;56.878;60.672;2024-03-23T07:53:23;97384.69;;;21.87;29.29
62524;BME280;53689;56.878;60.672;2024-03-23T07:55:54;97390.06;;;21.87;27.01
62524;BME280;53689;56.878;60.672;2024-03-23T07:58:20;97385.91;;;21.91;28.02
62524;BME280;53689;56.878;60.672;2024-03-23T08:00:47;97388.75;;;21.96;25.60
62524;BME280;53689;56.878;60.672;2024-03-23T08:03:13;97389.63;;;21.90;25.90
62524;BME280;53689;56.878;60.672;2024-03-23T08:05:42;97390.28;;;21.85;26.12
62524;BME280;53689;56.878;60.672;2024-03-23T08:08:08;97383.91;;;21.80;25.55
62524;BME280;53689;56.878;60.672;2024-03-23T08:10:35;97386.88;;;21.71;25.11
62524;BME280;53689;56.878;60.672;2024-03-23T08:13:02;97380.69;;;21.71;24.84
62524;BME280;53689;56.878;60.672;2024-03-23T08:15:30;97377.19;;;21.63;24.92
62524;BME280;53689;56.878;60.672;2024-03-23T08:17:57;97366.00;;;21.60;25.02
62524;BME280;53689;56.878;60.672;2024-03-23T08:20:23;97372.00;;;21.62;26.37
62524;BME280;53689;56.878;60.672;2024-03-23T08:22:52;97365.47;;;21.51;25.75
62524;BME280;53689;56.878;60.672;2024-03-23T08:25:18;97369.94;;;21.32;24.79
62524;BME280;53689;56.878;60.672;2024-03-23T08:27:45;97367.66;;;21.35;25.34
62524;BME280;53689;56.878;60.672;2024-03-23T08:30:12;97362.84;;;21.44;27.01
62524;BME280;53689;56.878;60.672;2024-03-23T08:32:39;97362.53;;;21.53;26.38
62524;BME280;53689;56.878;60.672;2024-03-23T08:35:07;97360.16;;;21.44;24.91
62524;BME280;53689;56.878;60.672;2024-03-23T08:37:33;97353.44;;;21.54;24.45
62524;BME280;53689;56.878;60.672;2024-03-23T08:40:01;97366.19;;;21.65;24.92
62524;BME280;53689;56.878;60.672;2024-03-23T08:42:28;97356.16;;;21.54;25.08
62524;BME280;53689;56.878;60.672;2024-03-23T08:44:55;97344.25;;;21.61;24.84
62524;BME280;53689;56.878;60.672;2024-03-23T08:47:21;97352.25;;;21.75;27.19
62524;BME280;53689;56.878;60.672;2024-03-23T08:49:48;97349.41;;;21.70;24.63
62524;BME280;53689;56.878;60.672;2024-03-23T08:52:15;97346.84;;;21.49;24.63
62524;BME280;53689;56.878;60.672;2024-03-23T08:54:41;97338.47;;;21.58;26.09
62524;BME280;53689;56.878;60.672;2024-03-23T08:57:10;97337.72;;;21.51;25.09
62524;BME280;53689;56.878;60.672;2024-03-23T08:59:37;97331.06;;;21.28;25.17
62524;BME280;53689;56.878;60.672;2024-03-23T09:02:05;97332.84;;;21.34;24.98
62524;BME280;53689;56.878;60.672;2024-03-23T09:04:31;97336.59;;;21.33;24.69
62524;BME280;53689;56.878;60.672;2024-03-23T09:06:58;97337.22;;;21.35;24.91
62524;BME280;53689;56.878;60.672;2024-03-23T09:09:25;97333.03;;;21.39;24.29
62524;BME280;53689;56.878;60.672;2024-03-23T09:11:51;97333.25;;;21.38;27.17
62524;BME280;53689;56.878;60.672;2024-03-23T09:14:19;97333.03;;;21.39;25.49
62524;BME280;53689;56.878;60.672;2024-03-23T09:16:46;97324.50;;;21.42;25.00
62524;BME280;53689;56.878;60.672;2024-03-23T09:19:17;97330.84;;;21.55;25.24
62524;BME280;53689;56.878;60.672;2024-03-23T09:21:44;97331.38;;;21.63;24.80
62524;BME280;53689;56.878;60.672;2024-03-23T09:24:10;97326.81;;;21.71;26.81
62524;BME280;53689;56.878;60.672;2024-03-23T09:26:37;97330.53;;;22.14;26.61
62524;BME280;53689;56.878;60.672;2024-03-23T09:29:03;97333.34;;;22.19;26.82
62524;BME280;53689;56.878;60.672;2024-03-23T09:31:31;97327.25;;;22.30;26.93
62524;BME280;53689;56.878;60.672;2024-03-23T09:33:58;97322.81;;;22.36;26.68
62524;BME280;53689;56.878;60.672;2024-03-23T09:36:25;97316.38;;;22.18;25.63
62524;BME280;53689;56.878;60.672;2024-03-23T09:38:51;97314.06;;;22.03;26.79
62524;BME280;53689;56.878;60.672;2024-03-23T09:41:18;97307.59;;;21.86;27.61
62524;BME280;53689;56.878;60.672;2024-03-23T09:43:45;97316.19;;;21.95;27.86
62524;BME280;53689;56.878;60.672;2024-03-23T09:46:12;97308.94;;;21.95;28.15
62524;BME280;53689;56.878;60.672;2024-03-23T09:48:40;97311.56;;;21.83;27.41
62524;BME280;53689;56.878;60.672;2024-03-23T09:51:07;97304.50;;;21.82;28.91
62524;BME280;53689;56.878;60.672;2024-03-23T09:53:35;97305.72;;;21.86;27.38
62524;BME280;53689;56.878;60.672;2024-03-23T09:56:01;97313.28;;;21.96;27.79
62524;BME280;53689;56.878;60.672;2024-03-23T09:58:29;97302.50;;;21.96;25.92
62524;BME280;53689;56.878;60.672;2024-03-23T10:00:55;97303.84;;;21.87;27.59
62524;BME280;53689;56.878;60.672;2024-03-23T10:03:22;97300.56;;;22.03;26.76
62524;BME280;53689;56.878;60.672;2024-03-23T10:06:00;97304.63;;;21.94;26.78
62524;BME280;53689;56.878;60.672;2024-03-23T10:08:29;97298.69;;;22.04;27.93
62524;BME280;53689;56.878;60.672;2024-03-23T10:10:55;97292.91;;;22.00;27.24
62524;BME280;53689;56.878;60.672;2024-03-23T10:13:25;97293.09;;;22.06;26.93
62524;BME280;53689;56.878;60.672;2024-03-23T10:15:56;97285.66;;;22.01;25.21
62524;BME280;53689;56.878;60.672;2024-03-23T10:18:24;97285.38;;;22.09;28.63
62524;BME280;53689;56.878;60.672;2024-03-23T10:21:07;97284.81;;;22.19;29.06
62524;BME280;53689;56.878;60.672;2024-03-23T10:23:34;97282.97;;;22.01;28.00
62524;BME280;53689;56.878;60.672;2024-03-23T10:26:13;97274.22;;;22.06;27.02
62524;BME280;53689;56.878;60.672;2024-03-23T10:28:51;97271.34;;;22.00;27.76
62524;BME280;53689;56.878;60.672;2024-03-23T10:31:18;97279.66;;;22.36;28.69
62524;BME280;53689;56.878;60.672;2024-03-23T10:33:45;97271.47;;;22.43;27.27
62524;BME280;53689;56.878;60.672;2024-03-23T10:36:14;97278.91;;;22.48;27.63
62524;BME280;53689;56.878;60.672;2024-03-23T10:38:42;97268.94;;;22.48;28.38
62524;BME280;53689;56.878;60.672;2024-03-23T10:41:09;97283.91;;;22.44;28.02
62524;BME280;53689;56.878;60.672;2024-03-23T10:43:37;97275.75;;;22.51;27.56
62524;BME280;53689;56.878;60.672;2024-03-23T10:46:04;97277.41;;;22.33;28.38
62524;BME280;53689;56.878;60.672;2024-03-23T10:48:32;97270.31;;;22.39;27.57
62524;BME280;53689;56.878;60.672;2024-03-23T10:50:59;97261.41;;;22.20;27.71
62524;BME280;53689;56.878;60.672;2024-03-23T10:53:28;97267.00;;;22.18;28.25
62524;BME280;53689;56.878;60.672;2024-03-23T10:55:55;97270.00;;;22.28;28.24
62524;BME280;53689;56.878;60.672;2024-03-23T10:58:26;97264.63;;;22.10;27.78
62524;BME280;53689;56.878;60.672;2024-03-23T11:00:54;97265.63;;;22.15;28.70
62524;BME280;53689;56.878;60.672;2024-03-23T11:03:33;97265.63;;;21.97;27.97
62524;BME280;53689;56.878;60.672;2024-03-23T11:06:00;97266.34;;;22.04;27.00
62524;BME280;53689;56.878;60.672;2024-03-23T11:08:36;97261.31;;;22.08;28.39
62524;BME280;53689;56.878;60.672;2024-03-23T11:11:13;97255.50;;;22.11;27.64
62524;BME280;53689;56.878;60.672;2024-03-23T11:13:40;97252.66;;;22.06;27.07
62524;BME280;53689;56.878;60.672;2024-03-23T11:16:24;97256.19;;;22.06;27.82
62524;BME280;53689;56.878;60.672;2024-03-23T11:18:51;97254.22;;;22.13;28.61
62524;BME280;53689;56.878;60.672;2024-03-23T11:21:52;97256.84;;;22.01;28.42
62524;BME280;53689;56.878;60.672;2024-03-23T11:24:21;97261.38;;;22.38;29.21
62524;BME280;53689;56.878;60.672;2024-03-23T11:26:48;97250.09;;;22.29;26.72
62524;BME280;53689;56.878;60.672;2024-03-23T11:29:16;97248.59;;;22.15;27.36
62524;BME280;53689;56.878;60.672;2024-03-23T11:31:46;97249.06;;;22.12;25.74
62524;BME280;53689;56.878;60.672;2024-03-23T11:34:15;97252.19;;;22.09;26.62
62524;BME280;53689;56.878;60.672;2024-03-23T11:36:42;97245.41;;;22.06;26.29
62524;BME280;53689;56.878;60.672;2024-03-23T11:39:13;97244.09;;;22.09;27.41
62524;BME280;53689;56.878;60.672;2024-03-23T11:41:51;97245.44;;;22.18;29.02
62524;BME280;53689;56.878;60.672;2024-03-23T11:44:18;97242.75;;;22.18;26.93
62524;BME280;53689;56.878;60.672;2024-03-23T11:46:45;97245.16;;;22.08;25.28
62524;BME280;53689;56.878;60.672;2024-03-23T11:49:22;97246.78;;;22.09;26.55
62524;BME280;53689;56.878;60.672;2024-03-23T11:51:49;97246.28;;;22.00;26.31
62524;BME280;53689;56.878;60.672;2024-03-23T11:54:16;97248.81;;;22.13;28.36
62524;BME280;53689;56.878;60.672;2024-03-23T11:56:56;97240.97;;;22.12;28.63
62524;BME280;53689;56.878;60.672;2024-03-23T11:59:33;97238.50;;;22.10;28.02
62524;BME280;53689;56.878;60.672;2024-03-23T12:02:00;97236.84;;;22.09;28.52
62524;BME280;53689;56.878;60.672;2024-03-23T12:04:27;97234.25;;;22.02;27.55
62524;BME280;53689;56.878;60.672;2024-03-23T12:07:09;97237.22;;;22.13;29.23
62524;BME280;53689;56.878;60.672;2024-03-23T12:09:35;97235.81;;;22.10;27.82
62524;BME280;53689;56.878;60.672;2024-03-23T12:12:10;97242.97;;;22.35;27.76
62524;BME280;53689;56.878;60.672;2024-03-23T12:14:38;97241.91;;;22.36;27.94
62524;BME280;53689;56.878;60.672;2024-03-23T12:17:09;97232.69;;;22.44;29.02
62524;BME280;53689;56.878;60.672;2024-03-23T12:19:36;97235.31;;;22.51;27.57
62524;BME280;53689;56.878;60.672;2024-03-23T12:22:03;97231.88;;;22.43;27.98
62524;BME280;53689;56.878;60.672;2024-03-23T12:24:31;97233.03;;;22.48;28.04
62524;BME280;53689;56.878;60.672;2024-03-23T12:27:00;97228.13;;;22.44;27.29
62524;BME280;53689;56.878;60.672;2024-03-23T12:29:29;97233.22;;;22.53;28.68
62524;BME280;53689;56.878;60.672;2024-03-23T12:31:56;97221.59;;;22.52;28.33
62524;BME280;53689;56.878;60.672;2024-03-23T12:34:23;97223.25;;;22.35;27.04
62524;BME280;53689;56.878;60.672;2024-03-23T12:36:50;97217.41;;;22.38;26.45
62524;BME280;53689;56.878;60.672;2024-03-23T12:39:17;97221.06;;;22.43;27.71
62524;BME280;53689;56.878;60.672;2024-03-23T12:41:43;97219.13;;;22.51;28.20
62524;BME280;53689;56.878;60.672;2024-03-23T12:44:10;97211.09;;;22.44;27.23
62524;BME280;53689;56.878;60.672;2024-03-23T12:46:39;97204.84;;;22.50;27.93
62524;BME280;53689;56.878;60.672;2024-03-23T12:49:05;97208.94;;;22.53;28.31
62524;BME280;53689;56.878;60.672;2024-03-23T12:51:32;97202.72;;;22.52;29.14
62524;BME280;53689;56.878;60.672;2024-03-23T12:53:59;97198.88;;;22.60;28.21
62524;BME280;53689;56.878;60.672;2024-03-23T12:56:26;97202.09;;;22.20;28.08
62524;BME280;53689;56.878;60.672;2024-03-23T12:58:52;97200.91;;;22.15;28.03
62524;BME280;53689;56.878;60.672;2024-03-23T13:01:19;97205.78;;;22.07;28.47
62524;BME280;53689;56.878;60.672;2024-03-23T13:03:48;97196.06;;;22.06;29.12
62524;BME280;53689;56.878;60.672;2024-03-23T13:06:15;97193.78;;;22.21;28.45
62524;BME280;53689;56.878;60.672;2024-03-23T13:08:42;97198.91;;;22.11;25.77
62524;BME280;53689;56.878;60.672;2024-03-23T13:11:10;97200.06;;;22.15;26.53
62524;BME280;53689;56.878;60.672;2024-03-23T13:13:36;97195.84;;;22.07;28.62
62524;BME280;53689;56.878;60.672;2024-03-23T13:16:04;97198.59;;;22.00;28.86
62524;BME280;53689;56.878;60.672;2024-03-23T13:18:30;97188.34;;;22.09;27.77
62524;BME280;53689;56.878;60.672;2024-03-23T13:20:59;97196.63;;;22.08;26.64
62524;BME280;53689;56.878;60.672;2024-03-23T13:23:26;97194.41;;;22.04;25.84
62524;BME280;53689;56.878;60.672;2024-03-23T13:25:53;97188.72;;;22.13;26.34
62524;BME280;53689;56.878;60.672;2024-03-23T13:28:20;97196.13;;;22.17;28.32
62524;BME280;53689;56.878;60.672;2024-03-23T13:30:50;97194.47;;;22.16;27.63
62524;BME280;53689;56.878;60.672;2024-03-23T13:33:17;97194.41;;;22.04;29.64
62524;BME280;53689;56.878;60.672;2024-03-23T13:35:51;97194.31;;;22.11;25.69
62524;BME280;53689;56.878;60.672;2024-03-23T13:38:20;97194.78;;;22.08;27.31
62524;BME280;53689;56.878;60.672;2024-03-23T13:40:52;97190.16;;;22.27;27.87
62524;BME280;53689;56.878;60.672;2024-03-23T13:43:19;97184.00;;;22.08;27.40
62524;BME280;53689;56.878;60.672;2024-03-23T13:45:46;97189.22;;;22.03;27.89